Baraboo, WI (53913)

7:07 AM CDT on April 21, 2015 (GMT -0500)
Baraboo Wisconsin Dells | | Change Station
CLOSE
Current Station
Airport
Location: Baraboo,
Elevation: 978 ft
Nearby Weather Stations

Elev 978 ft 43.52 °N, 89.77 °W | Updated 12 minutes ago

Overcast
Overcast
35 °F
Feels Like 27 °F
N
10
Wind Variable Wind from West
Gusts 20 mph

Today
High -- | Low -- °F
--% Chance of Precip.
Yesterday
High -- | Low -- °F
Precip. -- in
6:07 AM 7:49 PM
Waxing Crescent, 10% visible
Pressure 29.50 in
Visibility 10.0 miles
Clouds Scattered Clouds 2500 ft
Overcast 4000 ft
Windchill 27 °F
Dew Point 30 °F
Humidity 82%
Rainfall 0.00 in
Snow Depth Not available.
UV 0 out of 12
Pollen 9.70 out of 12
Air Quality Not available.
Flu Activity Local Activity
METAR KDLL 211155Z AUTO 26009G17KT 10SM SCT025 OVC040 02/M01 A2950 RMK AO2 7//// T00171011 10035 20010

More Conditions Fewer Conditions

Pressure 29.50 in
Visibility 10.0 miles
Clouds Scattered Clouds 2500 ft
Overcast 4000 ft
Windchill 27 °F
Dew Point 30 °F
Humidity 82%
Rainfall 0.00 in
Snow Depth Not available.
UV 0 out of 12
Pollen 9.70 out of 12
Air Quality Not available.
Flu Activity Local Activity
METAR KDLL 211155Z AUTO 26009G17KT 10SM SCT025 OVC040 02/M01 A2950 RMK AO2 7//// T00171011 10035 20010

More Conditions Fewer Conditions

10-Day Weather Forecast

Almanac

Astronomy

Apr. 21, 2015 Rise Set
Actual Time
Civil Twilight
Nautical Twilight
Astronomical Twilight
Moon
Length of Visible Light
Length of Day
Tomorrow will be .
, % of the Moon is Illuminated

Today's Extremes

State Highs State Lows

Community

WunderPhotos

Upload Photos

1,815,350 photos uploaded!

WunderBlogs® & News

Nearby

Air Quality

  Air Quality AQ Index Pollutant
Not available.

Snow Depth

Station Depth Elevation

Earthquake Activity

City Distance Mag. Time & Date
Minimum magnitude displayed is 2.5.

Coastal Water Temperatures

Place Temperature

Stations

Nearby Weather Stations

Station Location Temp. Windchill Dew Point Humidity Wind Precip. Elev Updated Type